createdAt,value
2018-07-19T00:01:49.874Z,79.80
2018-07-19T00:04:17.950Z,79.90
2018-07-19T00:06:46.324Z,80.00
2018-07-19T00:09:14.387Z,80.20
2018-07-19T00:11:42.464Z,80.20
2018-07-19T00:14:10.950Z,80.20
2018-07-19T00:16:39.150Z,80.50
2018-07-19T00:19:07.223Z,80.40
2018-07-19T00:21:35.582Z,81.60
2018-07-19T00:24:03.642Z,81.30
2018-07-19T00:26:31.759Z,81.40
2018-07-19T00:29:00.103Z,81.50
2018-07-19T00:31:28.174Z,81.40
2018-07-19T00:33:56.312Z,81.50
2018-07-19T00:36:24.614Z,82.30
2018-07-19T00:38:52.731Z,81.70
2018-07-19T00:41:20.831Z,81.90
2018-07-19T00:46:16.906Z,82.10
2018-07-19T00:48:45.015Z,82.00
2018-07-19T00:51:13.314Z,82.10
2018-07-19T00:53:41.423Z,82.30
2018-07-19T00:56:09.490Z,82.50
2018-07-19T00:58:37.603Z,82.70
2018-07-19T01:01:05.686Z,83.10
2018-07-19T01:03:33.787Z,83.90
2018-07-19T01:06:02.202Z,83.90
2018-07-19T01:08:30.271Z,84.50
2018-07-19T01:10:58.346Z,84.30
2018-07-19T01:13:26.450Z,84.10
2018-07-19T01:15:54.528Z,84.00
2018-07-19T01:18:22.662Z,84.00
2018-07-19T01:20:50.744Z,84.10
2018-07-19T01:23:18.822Z,84.80
2018-07-19T01:25:46.894Z,84.20
2018-07-19T01:28:15.255Z,84.40
2018-07-19T01:30:43.315Z,84.60
2018-07-19T01:33:11.374Z,84.90
2018-07-19T01:35:39.447Z,85.10
2018-07-19T01:38:07.562Z,85.10
2018-07-19T01:40:35.650Z,85.10
2018-07-19T01:43:03.722Z,85.10
2018-07-19T01:45:31.812Z,85.10
2018-07-19T01:47:59.890Z,85.20
2018-07-19T01:50:28.315Z,85.90
2018-07-19T01:52:56.390Z,86.00
2018-07-19T01:55:24.458Z,86.20
2018-07-19T01:57:52.806Z,86.40
2018-07-19T02:00:20.878Z,86.30
2018-07-19T02:02:48.975Z,86.30
2018-07-19T02:05:17.369Z,86.30
2018-07-19T02:07:45.449Z,86.20
2018-07-19T02:10:13.515Z,86.30
2018-07-19T02:12:41.882Z,86.30
2018-07-19T02:15:09.983Z,86.40
2018-07-19T02:17:38.058Z,86.50
2018-07-19T02:20:06.141Z,86.70
2018-07-19T02:22:34.212Z,86.70
2018-07-19T02:25:02.288Z,86.90
2018-07-19T02:29:58.604Z,87.20
2018-07-19T02:32:26.706Z,87.60
2018-07-19T02:34:54.793Z,88.50
2018-07-19T02:37:22.864Z,88.70
2018-07-19T02:39:50.926Z,88.80
2018-07-19T02:42:19.030Z,88.70
2018-07-19T02:44:48.131Z,88.80
2018-07-19T02:47:16.202Z,88.50
2018-07-19T02:49:44.546Z,88.40
2018-07-19T02:52:12.622Z,89.10
2018-07-19T02:54:40.694Z,88.50
2018-07-19T02:57:08.777Z,88.60
2018-07-19T02:59:36.871Z,88.40
2018-07-19T03:02:05.053Z,88.40
2018-07-19T03:04:33.069Z,88.50
2018-07-19T03:07:01.166Z,88.50
2018-07-19T03:09:29.226Z,88.80
2018-07-19T03:11:57.657Z,88.50
2018-07-19T03:14:25.746Z,88.40
2018-07-19T03:16:53.842Z,89.50
2018-07-19T03:19:21.926Z,89.60
2018-07-19T03:21:50.013Z,90.00
2018-07-19T03:24:18.098Z,89.90
2018-07-19T03:26:46.431Z,89.80
2018-07-19T03:29:14.522Z,89.70
2018-07-19T03:31:42.599Z,90.10
2018-07-19T03:34:10.907Z,89.50
2018-07-19T03:36:38.981Z,89.40
2018-07-19T03:39:08.716Z,89.30
2018-07-19T03:41:36.808Z,89.20
2018-07-19T03:44:04.889Z,89.00
2018-07-19T03:46:32.952Z,88.90
2018-07-19T03:49:01.287Z,88.80
2018-07-19T03:51:29.386Z,89.00
2018-07-19T03:53:57.707Z,88.60
2018-07-19T03:56:25.854Z,88.60
2018-07-19T03:58:53.926Z,88.80
2018-07-19T04:01:21.990Z,89.10
2018-07-19T04:03:50.328Z,89.00
2018-07-19T04:06:18.563Z,89.20
2018-07-19T04:08:46.674Z,89.40
2018-07-19T04:11:14.903Z,89.30
2018-07-19T04:13:43.164Z,89.20
2018-07-19T04:16:11.228Z,89.90
2018-07-19T04:18:39.578Z,89.10
2018-07-19T04:21:07.702Z,89.10
2018-07-19T04:23:35.782Z,89.10
2018-07-19T04:28:31.974Z,89.00
2018-07-19T04:31:00.043Z,89.10
2018-07-19T04:33:28.163Z,89.20
2018-07-19T04:35:56.238Z,89.30
2018-07-19T04:38:24.416Z,89.50
2018-07-19T04:40:52.794Z,89.60
2018-07-19T04:43:21.048Z,89.70
2018-07-19T04:45:49.141Z,89.60
2018-07-19T04:48:17.605Z,89.50
2018-07-19T04:50:45.630Z,89.40
2018-07-19T04:53:13.718Z,89.80
2018-07-19T04:55:41.818Z,89.80
2018-07-19T04:58:09.894Z,89.80
2018-07-19T05:00:37.994Z,89.60
2018-07-19T05:03:06.542Z,89.50
2018-07-19T05:05:34.659Z,89.20
2018-07-19T05:08:02.768Z,89.10
2018-07-19T05:10:30.870Z,89.00
2018-07-19T05:12:58.953Z,88.80
2018-07-19T05:15:27.123Z,88.90
2018-07-19T05:17:55.510Z,88.90
2018-07-19T05:20:23.566Z,88.80
2018-07-19T05:22:51.631Z,88.80
2018-07-19T05:25:19.726Z,88.80
2018-07-19T05:27:47.895Z,88.70
2018-07-19T05:30:15.979Z,88.60
2018-07-19T05:32:44.282Z,88.30
2018-07-19T05:35:12.447Z,88.20
2018-07-19T05:37:40.515Z,88.10
2018-07-19T05:40:08.988Z,87.90
2018-07-19T05:42:37.090Z,87.60
2018-07-19T05:45:05.265Z,87.20
2018-07-19T05:47:33.706Z,86.90
2018-07-19T05:50:01.793Z,86.30
2018-07-19T05:52:29.871Z,85.60
2018-07-19T05:54:57.942Z,85.00
2018-07-19T05:57:26.047Z,84.60
2018-07-19T05:59:54.135Z,84.00
2018-07-19T06:02:22.546Z,83.20
2018-07-19T06:04:50.744Z,82.50
2018-07-19T06:07:18.858Z,82.10
2018-07-19T06:09:47.291Z,81.60
2018-07-19T06:12:15.364Z,81.30
2018-07-19T06:14:43.488Z,81.00
2018-07-19T06:17:11.908Z,80.90
2018-07-19T06:19:39.970Z,80.70
2018-07-19T06:22:08.046Z,80.50
2018-07-19T06:24:36.426Z,80.50
2018-07-19T06:27:04.696Z,80.30
2018-07-19T06:29:32.826Z,81.30
2018-07-19T06:32:00.944Z,80.50
2018-07-19T06:34:29.018Z,79.70
2018-07-19T06:36:58.392Z,79.10
2018-07-19T06:39:26.804Z,78.60
2018-07-19T06:41:54.892Z,77.90
2018-07-19T06:44:23.170Z,77.20
2018-07-19T06:46:51.502Z,76.40
2018-07-19T06:49:23.444Z,75.90
2018-07-19T06:51:51.665Z,75.00
2018-07-19T06:54:19.914Z,74.30
2018-07-19T06:56:48.430Z,74.00
2018-07-19T06:59:16.883Z,74.00
2018-07-19T07:01:44.954Z,73.90
2018-07-19T07:04:13.047Z,74.00
2018-07-19T07:06:41.414Z,74.20
2018-07-19T07:09:11.041Z,74.80
2018-07-19T07:11:39.310Z,75.20
2018-07-19T07:14:07.827Z,75.30
2018-07-19T07:16:35.980Z,75.10
2018-07-19T07:19:04.034Z,74.70
2018-07-19T07:21:32.400Z,73.40
2018-07-19T07:24:00.470Z,73.30
2018-07-19T07:26:28.538Z,73.20
2018-07-19T07:28:56.938Z,72.90
2018-07-19T07:31:25.026Z,72.40
2018-07-19T07:33:53.098Z,72.00
2018-07-19T07:36:21.458Z,71.80
2018-07-19T07:38:49.739Z,71.80
2018-07-19T07:41:17.907Z,71.00
2018-07-19T07:43:46.012Z,70.70
2018-07-19T07:46:14.135Z,70.20
2018-07-19T07:48:42.210Z,69.70
2018-07-19T07:51:10.344Z,69.50
2018-07-19T07:53:38.436Z,68.90
2018-07-19T07:56:06.563Z,68.10
2018-07-19T07:58:34.618Z,67.60
2018-07-19T08:01:02.682Z,66.50
2018-07-19T08:03:30.755Z,65.60
2018-07-19T08:05:58.830Z,65.20
2018-07-19T08:08:26.907Z,64.70
2018-07-19T08:10:54.977Z,63.50
2018-07-19T08:13:23.334Z,63.50
2018-07-19T08:15:51.439Z,62.10
2018-07-19T08:18:19.582Z,62.30
2018-07-19T08:20:47.654Z,62.40
2018-07-19T08:23:15.744Z,62.60
2018-07-19T08:25:43.822Z,61.80
2018-07-19T08:28:11.932Z,61.00
2018-07-19T08:30:40.011Z,60.50
2018-07-19T08:33:08.298Z,60.40
2018-07-19T08:35:36.665Z,60.40
2018-07-19T08:38:05.519Z,60.40
2018-07-19T08:40:33.590Z,59.80
2018-07-19T08:43:01.937Z,59.70
2018-07-19T08:45:30.014Z,59.10
2018-07-19T08:47:58.090Z,58.50
2018-07-19T08:50:28.386Z,58.40
2018-07-19T08:55:24.638Z,57.60
2018-07-19T08:57:53.256Z,57.60
2018-07-19T09:00:21.312Z,57.00
2018-07-19T09:02:49.501Z,57.70
2018-07-19T09:05:18.673Z,56.70
2018-07-19T09:07:46.948Z,56.80
2018-07-19T09:10:15.152Z,57.00
2018-07-19T09:12:43.288Z,56.50
2018-07-19T09:17:39.784Z,56.00
2018-07-19T09:20:08.164Z,55.20
2018-07-19T09:22:37.159Z,54.50
2018-07-19T09:25:05.659Z,54.20
2018-07-19T09:27:34.138Z,53.70
2018-07-19T09:30:02.423Z,53.40
2018-07-19T09:32:30.513Z,53.20
2018-07-19T09:34:58.580Z,53.00
2018-07-19T09:37:26.668Z,52.90
2018-07-19T09:39:54.786Z,53.50
2018-07-19T09:42:22.950Z,52.70
2018-07-19T09:44:51.059Z,52.50
2018-07-19T09:47:19.192Z,51.30
2018-07-19T09:49:47.641Z,51.90
2018-07-19T09:52:15.781Z,51.70
2018-07-19T09:54:51.686Z,51.30
2018-07-19T09:57:20.394Z,51.20
2018-07-19T09:59:48.484Z,51.00
2018-07-19T10:02:16.826Z,50.70
2018-07-19T10:04:45.433Z,50.50
2018-07-19T10:07:14.079Z,50.80
2018-07-19T10:09:42.399Z,49.90
2018-07-19T10:12:10.947Z,49.10
2018-07-19T10:14:39.102Z,48.70
2018-07-19T10:17:07.604Z,48.30
2018-07-19T10:19:35.840Z,48.00
2018-07-19T10:22:04.031Z,48.30
2018-07-19T10:24:32.127Z,47.60
2018-07-19T10:27:00.203Z,47.80
2018-07-19T10:29:28.291Z,47.80
2018-07-19T10:31:56.893Z,47.90
2018-07-19T10:34:25.004Z,48.40
2018-07-19T10:36:53.053Z,47.90
2018-07-19T10:39:21.522Z,47.20
2018-07-19T10:41:49.587Z,46.70
2018-07-19T10:44:17.865Z,46.20
2018-07-19T10:46:46.027Z,46.20
2018-07-19T10:49:15.126Z,45.70
2018-07-19T10:51:43.236Z,45.60
2018-07-19T10:54:11.595Z,45.50
2018-07-19T10:56:39.778Z,45.50
2018-07-19T10:59:07.894Z,44.70
2018-07-19T11:01:36.311Z,44.80
2018-07-19T11:04:04.378Z,45.10
2018-07-19T11:06:32.466Z,44.60
2018-07-19T11:09:00.542Z,44.10
2018-07-19T11:11:28.635Z,44.20
2018-07-19T11:13:56.712Z,44.00
2018-07-19T11:18:52.750Z,44.10
2018-07-19T11:21:20.823Z,44.40
2018-07-19T11:23:48.927Z,44.20
2018-07-19T11:26:17.002Z,44.80
2018-07-19T11:28:45.114Z,43.50
2018-07-19T11:31:13.692Z,43.10
2018-07-19T11:33:41.838Z,42.80
2018-07-19T11:36:10.026Z,42.70
2018-07-19T11:38:38.518Z,42.70
2018-07-19T11:41:07.202Z,42.60
2018-07-19T11:43:35.319Z,42.70
2018-07-19T11:48:31.626Z,42.80
2018-07-19T11:50:59.739Z,43.10
2018-07-19T11:53:28.294Z,43.10
2018-07-19T11:55:56.362Z,43.00
2018-07-19T11:58:24.454Z,43.00
2018-07-19T12:00:52.530Z,43.50
2018-07-19T12:05:48.543Z,42.60
2018-07-19T12:08:16.915Z,43.10
2018-07-19T12:10:44.990Z,43.10
2018-07-19T12:13:13.074Z,43.30
2018-07-19T12:15:41.539Z,43.20
2018-07-19T12:18:09.847Z,43.30
2018-07-19T12:20:37.941Z,43.60
2018-07-19T12:23:06.375Z,43.60
2018-07-19T12:25:34.483Z,43.70
2018-07-19T12:28:02.651Z,43.90
2018-07-19T12:30:32.047Z,43.80
2018-07-19T12:33:00.119Z,44.20
2018-07-19T12:35:28.190Z,44.10
2018-07-19T12:37:56.662Z,43.80
2018-07-19T12:40:24.763Z,43.80
2018-07-19T12:42:52.831Z,43.80
2018-07-19T12:45:21.302Z,43.60
2018-07-19T12:47:49.422Z,43.30
2018-07-19T12:50:17.530Z,43.10
2018-07-19T12:52:45.909Z,43.30
2018-07-19T12:55:13.974Z,43.20
2018-07-19T12:57:42.069Z,42.90
2018-07-19T13:00:10.493Z,43.30
2018-07-19T13:02:38.581Z,44.00
2018-07-19T13:05:06.671Z,43.80
2018-07-19T13:07:34.978Z,44.00
2018-07-19T13:10:03.106Z,43.60
2018-07-19T13:12:31.258Z,44.20
2018-07-19T13:14:59.688Z,43.90
2018-07-19T13:17:28.174Z,44.20
2018-07-19T13:19:56.244Z,44.20
2018-07-19T13:22:32.574Z,44.40
2018-07-19T13:25:00.970Z,45.20
2018-07-19T13:27:29.050Z,44.60
2018-07-19T13:29:57.534Z,44.90
2018-07-19T13:32:25.824Z,45.10
2018-07-19T13:34:53.920Z,45.60
2018-07-19T13:37:22.345Z,45.60
2018-07-19T13:39:50.413Z,45.40
2018-07-19T13:42:18.958Z,45.30
2018-07-19T13:44:48.804Z,45.30
2018-07-19T13:47:16.898Z,45.50
2018-07-19T13:49:45.133Z,45.40
2018-07-19T13:52:13.593Z,46.90
2018-07-19T13:54:46.466Z,46.30
2018-07-19T13:57:15.126Z,46.90
2018-07-19T13:59:43.279Z,45.90
2018-07-19T14:02:11.395Z,45.60
2018-07-19T14:04:39.854Z,45.30
2018-07-19T14:07:08.382Z,44.80
2018-07-19T14:09:36.456Z,44.70
2018-07-19T14:12:04.824Z,45.70
2018-07-19T14:14:32.935Z,45.20
2018-07-19T14:17:01.034Z,44.90
2018-07-19T14:19:29.519Z,44.70
2018-07-19T14:21:57.791Z,44.80
2018-07-19T14:24:25.965Z,44.90
2018-07-19T14:26:54.359Z,44.20
2018-07-19T14:29:22.434Z,43.80
2018-07-19T14:31:50.530Z,44.00
2018-07-19T14:34:18.639Z,44.20
2018-07-19T14:36:46.751Z,44.80
2018-07-19T14:39:14.882Z,44.70
2018-07-19T14:44:11.277Z,43.90
2018-07-19T14:46:39.357Z,43.60
2018-07-19T14:49:07.763Z,43.40
2018-07-19T14:51:35.844Z,43.60
2018-07-19T14:54:03.936Z,44.00
2018-07-19T14:56:32.259Z,44.20
2018-07-19T14:59:01.254Z,44.30
2018-07-19T15:01:29.356Z,44.20
2018-07-19T15:03:57.434Z,43.70
2018-07-19T15:06:25.544Z,43.30
2018-07-19T15:08:53.682Z,42.60
2018-07-19T15:11:22.110Z,42.00
2018-07-19T15:13:50.220Z,41.50
2018-07-19T15:21:14.790Z,40.20
2018-07-19T15:23:42.910Z,39.30
2018-07-19T15:28:39.461Z,38.10
2018-07-19T15:31:07.716Z,37.80
2018-07-19T15:33:36.030Z,37.70
2018-07-19T15:36:05.098Z,37.20
2018-07-19T15:38:33.150Z,36.30
2018-07-19T15:41:01.219Z,34.60
2018-07-19T15:43:29.381Z,35.40
2018-07-19T15:45:57.458Z,34.40
2018-07-19T15:48:25.844Z,34.50
2018-07-19T15:50:53.910Z,33.80
2018-07-19T15:53:22.102Z,33.50
2018-07-19T15:55:50.206Z,32.90
2018-07-19T15:58:18.258Z,32.00
2018-07-19T16:00:46.331Z,32.10
2018-07-19T16:03:14.419Z,32.30
2018-07-19T16:05:42.570Z,32.20
2018-07-19T16:08:10.644Z,33.70
2018-07-19T16:10:39.015Z,33.70
2018-07-19T16:13:07.116Z,33.60
2018-07-19T16:15:35.178Z,33.60
2018-07-19T16:18:03.530Z,33.80
2018-07-19T16:20:32.165Z,33.50
2018-07-19T16:23:00.254Z,33.40
2018-07-19T16:25:28.553Z,33.80
2018-07-19T16:27:56.754Z,33.90
2018-07-19T16:30:24.883Z,33.90
2018-07-19T16:32:52.982Z,33.70
2018-07-19T16:35:21.074Z,33.80
2018-07-19T16:37:49.150Z,33.60
2018-07-19T16:40:17.783Z,33.10
2018-07-19T16:42:45.826Z,32.40
2018-07-19T16:45:13.938Z,32.10
2018-07-19T16:47:42.329Z,31.80
2018-07-19T16:50:10.384Z,31.60
2018-07-19T16:52:38.537Z,31.40
2018-07-19T16:55:06.947Z,31.00
2018-07-19T16:57:35.203Z,30.50
2018-07-19T17:00:03.275Z,30.30
2018-07-19T17:02:31.788Z,31.10
2018-07-19T17:04:59.887Z,31.80
2018-07-19T17:07:27.962Z,31.80
2018-07-19T17:09:57.327Z,32.30
2018-07-19T17:12:26.042Z,32.90
2018-07-19T17:14:54.270Z,33.10
2018-07-19T17:17:22.464Z,33.20
2018-07-19T17:19:50.683Z,33.40
2018-07-19T17:24:47.094Z,33.30
2018-07-19T17:27:15.174Z,33.40
2018-07-19T17:29:43.254Z,34.00
2018-07-19T17:32:11.349Z,35.20
2018-07-19T17:34:39.432Z,35.90
2018-07-19T17:39:35.527Z,37.50
2018-07-19T17:42:03.624Z,37.90
2018-07-19T17:44:32.186Z,37.40
2018-07-19T17:47:00.564Z,37.40
2018-07-19T17:49:28.687Z,37.90
2018-07-19T17:51:56.779Z,38.50
2018-07-19T17:54:25.740Z,38.80
2018-07-19T17:56:54.128Z,39.90
2018-07-19T17:59:23.183Z,41.40
2018-07-19T18:01:51.628Z,42.30
2018-07-19T18:04:19.793Z,43.60
2018-07-19T18:06:47.936Z,44.00
2018-07-19T18:09:16.382Z,44.60
2018-07-19T18:11:44.524Z,45.10
2018-07-19T18:14:12.666Z,45.30
2018-07-19T18:16:41.071Z,45.30
2018-07-19T18:19:24.494Z,45.70
2018-07-19T18:21:53.064Z,45.80
2018-07-19T18:24:21.166Z,46.10
2018-07-19T18:26:49.363Z,46.80
2018-07-19T18:29:17.786Z,47.60
2018-07-19T18:31:45.894Z,48.30
2018-07-19T18:34:13.974Z,49.20
2018-07-19T18:36:42.620Z,50.00
2018-07-19T18:39:12.158Z,50.60
2018-07-19T18:41:40.569Z,52.00
2018-07-19T18:44:09.376Z,52.70
2018-07-19T18:46:37.633Z,54.60
2018-07-19T18:49:05.716Z,55.40
2018-07-19T18:51:34.138Z,56.40
2018-07-19T18:54:02.582Z,57.20
2018-07-19T18:56:30.663Z,57.70
2018-07-19T18:58:59.102Z,58.10
2018-07-19T19:01:27.406Z,59.10
2018-07-19T19:03:55.493Z,58.90
2018-07-19T19:06:23.974Z,59.10
2018-07-19T19:08:52.043Z,59.40
2018-07-19T19:11:21.172Z,59.70
2018-07-19T19:13:49.540Z,60.10
2018-07-19T19:16:17.799Z,60.30
2018-07-19T19:18:45.918Z,60.50
2018-07-19T19:21:14.510Z,60.60
2018-07-19T19:23:42.609Z,60.80
2018-07-19T19:26:10.690Z,60.90
2018-07-19T19:28:38.795Z,61.10
2018-07-19T19:31:06.883Z,61.40
2018-07-19T19:33:34.959Z,61.70
2018-07-19T19:36:03.175Z,61.90
2018-07-19T19:38:32.098Z,62.10
2018-07-19T19:41:00.375Z,62.40
2018-07-19T19:43:28.796Z,62.80
2018-07-19T19:45:56.908Z,63.20
2018-07-19T19:48:25.045Z,63.50
2018-07-19T19:50:55.009Z,64.00
2018-07-19T19:53:23.827Z,64.20
2018-07-19T19:55:51.930Z,64.40
2018-07-19T19:58:20.484Z,64.60
2018-07-19T20:00:48.651Z,64.80
2018-07-19T20:03:16.939Z,65.50
2018-07-19T20:05:45.263Z,65.50
2018-07-19T20:08:13.346Z,65.50
2018-07-19T20:10:41.439Z,65.60
2018-07-19T20:13:09.770Z,65.90
2018-07-19T20:15:37.924Z,66.10
2018-07-19T20:18:06.001Z,66.30
2018-07-19T20:20:34.399Z,66.40
2018-07-19T20:23:02.502Z,66.50
2018-07-19T20:25:30.571Z,66.80
2018-07-19T20:27:58.942Z,66.80
2018-07-19T20:30:27.178Z,67.00
2018-07-19T20:32:55.259Z,67.20
2018-07-19T20:35:23.596Z,67.40
2018-07-19T20:37:51.664Z,67.40
2018-07-19T20:40:19.743Z,67.50
2018-07-19T20:42:48.152Z,67.70
2018-07-19T20:45:16.298Z,67.90
2018-07-19T20:47:44.479Z,68.10
2018-07-19T20:50:12.931Z,68.10
2018-07-19T20:52:41.000Z,68.10
2018-07-19T20:55:09.509Z,68.20
2018-07-19T20:57:37.889Z,68.40
2018-07-19T21:00:06.325Z,68.70
2018-07-19T21:02:34.463Z,69.00
2018-07-19T21:05:03.059Z,69.20
2018-07-19T21:07:31.149Z,69.40
2018-07-19T21:09:59.233Z,69.60
2018-07-19T21:12:27.592Z,69.90
2018-07-19T21:14:55.677Z,70.00
2018-07-19T21:17:23.786Z,70.20
2018-07-19T21:19:51.878Z,70.50
2018-07-19T21:22:19.981Z,71.70
2018-07-19T21:24:48.035Z,71.70
2018-07-19T21:27:16.539Z,71.80
2018-07-19T21:29:44.588Z,71.90
2018-07-19T21:32:12.642Z,71.90
2018-07-19T21:34:40.726Z,72.10
2018-07-19T21:37:08.803Z,72.20
2018-07-19T21:39:36.898Z,72.60
2018-07-19T21:42:05.006Z,72.80
2018-07-19T21:44:33.095Z,73.00
2018-07-19T21:47:01.159Z,73.30
2018-07-19T21:49:29.638Z,73.20
2018-07-19T21:51:57.714Z,73.40
2018-07-19T21:56:53.894Z,73.90
2018-07-19T21:59:22.002Z,74.10
2018-07-19T22:01:50.091Z,74.20
2018-07-19T22:04:18.522Z,75.20
2018-07-19T22:06:46.624Z,75.60
2018-07-19T22:09:14.921Z,75.00
2018-07-19T22:11:43.258Z,75.10
2018-07-19T22:14:11.416Z,75.90
2018-07-19T22:16:40.234Z,75.50
2018-07-19T22:19:08.802Z,75.70
2018-07-19T22:21:36.933Z,75.80
2018-07-19T22:24:05.036Z,75.80
2018-07-19T22:26:33.106Z,75.90
2018-07-19T22:29:01.159Z,76.10
2018-07-19T22:31:29.261Z,76.40
2018-07-19T22:33:57.494Z,76.50
2018-07-19T22:36:25.558Z,76.90
2018-07-19T22:38:53.642Z,77.20
2018-07-19T22:43:50.050Z,77.50
2018-07-19T22:46:18.322Z,79.00
2018-07-19T22:48:46.498Z,79.00
2018-07-19T22:51:14.643Z,78.90
2018-07-19T22:53:42.882Z,79.00
2018-07-19T22:58:39.527Z,79.10
2018-07-19T23:01:08.042Z,79.30
2018-07-19T23:06:04.066Z,80.00
2018-07-19T23:08:32.158Z,80.40
2018-07-19T23:11:00.566Z,81.30
2018-07-19T23:13:28.678Z,80.70
2018-07-19T23:15:56.750Z,80.80
2018-07-19T23:18:24.838Z,81.50
2018-07-19T23:23:20.873Z,81.10
2018-07-19T23:25:49.294Z,81.40
2018-07-19T23:28:17.361Z,82.60
2018-07-19T23:30:45.438Z,82.50
2018-07-19T23:33:13.538Z,82.50
2018-07-19T23:35:46.170Z,82.50
2018-07-19T23:38:18.773Z,82.90
2018-07-19T23:40:49.018Z,83.10
2018-07-19T23:43:20.025Z,83.20
2018-07-19T23:45:53.419Z,83.50
2018-07-19T23:48:21.748Z,83.50
2018-07-19T23:50:49.871Z,84.00
2018-07-19T23:53:17.918Z,83.30
2018-07-19T23:55:46.023Z,83.50
2018-07-19T23:58:14.119Z,83.80
